Time;durP1;ratioP1;P1;durP2;ratioP2;P2;SDS_P1;SDS_P2;PMS_P1;PMS_P2;Temp;Humidity;BMP_temperature;BMP_pressure;BME280_temperature;BME280_humidity;BME280_pressure;Samples;Min_cycle;Max_cycle;Signal;HPM_P1;HPM_P2
2023/05/18 00:03:09;;;;;;;2.10;1.90;;;13.30;59.00;;;;;;4839947;29;20481;-82
2023/05/18 00:06:12;;;;;;;7.33;2.07;;;13.30;58.80;;;;;;4902097;29;20495;-80
2023/05/18 00:12:11;;;;;;;5.70;2.70;;;13.20;59.90;;;;;;4903332;29;20466;-81
2023/05/18 00:15:16;;;;;;;2.47;2.00;;;13.10;60.20;;;;;;4888731;29;20451;-82
2023/05/18 00:18:07;;;;;;;6.03;2.80;;;13.10;61.10;;;;;;4873939;29;20492;-83
2023/05/18 00:20:47;;;;;;;4.33;2.30;;;13.10;61.00;;;;;;4918898;29;20478;-81
2023/05/18 00:23:17;;;;;;;3.30;2.23;;;13.20;61.30;;;;;;4914979;29;20488;-81
2023/05/18 00:26:05;;;;;;;5.87;2.30;;;13.10;61.50;;;;;;4919029;28;20491;-83
2023/05/18 00:29:06;;;;;;;4.33;2.40;;;13.00;61.60;;;;;;4955418;28;20490;-80
2023/05/18 00:31:44;;;;;;;4.40;2.17;;;13.10;62.30;;;;;;4988000;28;20447;-81
2023/05/18 00:34:37;;;;;;;6.63;2.63;;;13.10;62.80;;;;;;4977700;28;20483;-82
2023/05/18 00:37:29;;;;;;;3.53;2.10;;;13.10;61.70;;;;;;4999172;28;20498;-81
2023/05/18 00:40:13;;;;;;;6.33;2.43;;;13.00;61.60;;;;;;4974248;28;20848;-82
2023/05/18 00:42:48;;;;;;;4.87;2.73;;;13.00;62.30;;;;;;4950764;28;20474;-82
2023/05/18 00:45:29;;;;;;;5.87;2.10;;;13.00;62.20;;;;;;4974772;28;20438;-81
2023/05/18 00:48:17;;;;;;;6.00;2.30;;;12.90;62.30;;;;;;4967717;28;20542;-82
2023/05/18 00:50:57;;;;;;;5.00;2.53;;;12.80;62.20;;;;;;4964003;28;20555;-83
2023/05/18 00:53:34;;;;;;;2.20;2.00;;;12.80;62.80;;;;;;4965962;28;20472;-84
2023/05/18 00:56:45;;;;;;;4.57;1.70;;;12.70;62.80;;;;;;4980804;28;20448;-84
2023/05/18 01:00:06;;;;;;;4.70;2.37;;;12.60;62.90;;;;;;4968212;28;20487;-82
2023/05/18 01:03:25;;;;;;;4.67;2.13;;;12.60;62.90;;;;;;4967885;28;20461;-83
2023/05/18 01:06:00;;;;;;;6.97;2.27;;;12.60;63.00;;;;;;4978769;28;20554;-83
2023/05/18 01:08:56;;;;;;;5.17;2.10;;;12.60;62.90;;;;;;4976333;28;20489;-82
2023/05/18 01:12:23;;;;;;;3.33;1.83;;;12.50;62.80;;;;;;4964131;28;20455;-84
2023/05/18 01:15:43;;;;;;;;;;;;;;;;;;;;;
2023/05/18 01:18:57;;;;;;;;;;;;;;;;;;;;;
2023/05/18 01:22:22;;;;;;;3.23;1.90;;;12.50;62.80;;;;;;4971043;28;20447;-83
2023/05/18 01:25:18;;;;;;;2.30;2.10;;;12.30;63.30;;;;;;4972976;28;20506;-82
2023/05/18 01:28:45;;;;;;;5.70;2.30;;;12.20;64.00;;;;;;4963547;28;20991;-85
2023/05/18 01:31:46;;;;;;;2.10;1.80;;;12.20;64.00;;;;;;4954496;28;20456;-83
2023/05/18 01:34:18;;;;;;;5.63;1.83;;;12.30;64.40;;;;;;4964991;28;20452;-82
2023/05/18 01:37:04;;;;;;;4.90;1.90;;;12.30;63.80;;;;;;4981645;28;20451;-83
2023/05/18 01:40:04;;;;;;;5.40;2.40;;;12.20;64.00;;;;;;4961519;28;20546;-83
2023/05/18 01:42:50;;;;;;;4.13;1.67;;;12.10;64.60;;;;;;4988884;28;20496;-82
2023/05/18 01:49:32;;;;;;;3.83;2.10;;;12.00;65.20;;;;;;4969063;28;20489;-83
2023/05/18 01:52:46;;;;;;;2.43;2.10;;;12.00;65.40;;;;;;4960265;28;20456;-84
2023/05/18 01:55:48;;;;;;;2.53;1.97;;;11.90;66.10;;;;;;4973666;28;20872;-83
2023/05/18 01:58:53;;;;;;;6.20;2.10;;;11.90;66.60;;;;;;4968435;28;20475;-82
2023/05/18 02:02:34;;;;;;;;;;;;;;;;;;;;;
2023/05/18 02:09:15;;;;;;;3.87;1.87;;;12.00;65.90;;;;;;4974228;28;20543;-83
2023/05/18 02:12:27;;;;;;;4.17;2.37;;;11.90;66.40;;;;;;4978332;28;20448;-84
2023/05/18 02:15:28;;;;;;;4.80;2.20;;;11.90;66.80;;;;;;4970400;28;21014;-84
2023/05/18 02:18:26;;;;;;;2.73;1.83;;;11.80;68.00;;;;;;4932027;29;20588;-82
2023/05/18 02:21:13;;;;;;;4.50;1.97;;;11.90;66.80;;;;;;4915057;29;20465;-83
2023/05/18 02:24:33;;;;;;;2.87;1.40;;;11.80;66.70;;;;;;4934322;29;20583;-83
2023/05/18 02:28:02;;;;;;;;;;;;;;;;;;;;;
2023/05/18 02:31:58;;;;;;;;;;;;;;;;;;;;;
2023/05/18 02:35:11;;;;;;;4.43;1.60;;;11.70;67.50;;;;;;4922376;29;20517;-83
2023/05/18 02:38:01;;;;;;;4.80;2.10;;;11.70;67.90;;;;;;4934411;29;20461;-84
2023/05/18 02:40:51;;;;;;;6.37;2.40;;;11.70;68.00;;;;;;4910220;29;20486;-83
2023/05/18 02:44:04;;;;;;;5.10;2.70;;;11.70;68.90;;;;;;4921225;29;20474;-82
2023/05/18 02:47:06;;;;;;;4.60;1.90;;;11.80;68.10;;;;;;4893310;29;20516;-82
2023/05/18 02:50:31;;;;;;;4.13;1.80;;;11.70;68.10;;;;;;4848476;29;21092;-84
2023/05/18 02:53:16;;;;;;;5.60;1.83;;;11.80;68.20;;;;;;4839634;29;20486;-82
2023/05/18 02:56:34;;;;;;;2.50;1.60;;;11.70;68.00;;;;;;4824267;29;20493;-83
2023/05/18 02:59:45;;;;;;;5.40;1.70;;;11.80;68.20;;;;;;4903832;29;20928;-82
2023/05/18 03:02:56;;;;;;;5.50;2.07;;;11.70;67.90;;;;;;4893748;29;20511;-83
2023/05/18 03:05:43;;;;;;;5.03;2.10;;;11.60;68.50;;;;;;4911007;29;20451;-82
2023/05/18 03:09:04;;;;;;;;;;;;;;;;;;;;;
2023/05/18 03:12:30;;;;;;;5.43;1.70;;;11.50;69.00;;;;;;4909475;29;20458;-80
2023/05/18 03:15:52;;;;;;;7.17;3.20;;;11.50;69.30;;;;;;4901550;29;20459;-83
2023/05/18 03:18:42;;;;;;;4.40;1.80;;;11.60;70.00;;;;;;4972529;28;20451;-81
2023/05/18 03:21:35;;;;;;;5.23;2.37;;;11.60;70.20;;;;;;4978628;28;20813;-83
2023/05/18 03:24:50;;;;;;;2.70;2.10;;;11.70;70.20;;;;;;4912295;29;20546;-82
2023/05/18 03:27:49;;;;;;;2.23;1.80;;;11.60;69.40;;;;;;4875788;29;20492;-82
2023/05/18 03:31:00;;;;;;;1.77;1.67;;;11.50;69.10;;;;;;4878302;29;20503;-82
2023/05/18 03:34:05;;;;;;;5.00;1.87;;;11.40;70.00;;;;;;4879872;29;20631;-82
2023/05/18 03:40:27;;;;;;;5.60;2.40;;;11.30;70.60;;;;;;4909210;29;20447;-84
2023/05/18 03:43:46;;;;;;;3.00;2.00;;;11.30;71.00;;;;;;4898390;29;20463;-82
2023/05/18 03:47:13;;;;;;;1.80;1.70;;;11.30;70.10;;;;;;4870610;29;20485;-82
2023/05/18 03:50:38;;;;;;;4.23;1.70;;;11.20;70.80;;;;;;4956719;28;20539;-82
2023/05/18 04:00:14;;;;;;;3.67;2.00;;;11.40;70.40;;;;;;4966040;28;20512;-82
2023/05/18 04:03:57;;;;;;;3.83;2.20;;;11.30;70.60;;;;;;4958497;28;20488;-82
2023/05/18 04:06:48;;;;;;;2.30;1.73;;;11.30;70.60;;;;;;4972669;28;20491;-82
2023/05/18 04:10:04;;;;;;;4.97;1.87;;;11.20;71.60;;;;;;4979745;28;20475;-82
2023/05/18 04:12:42;;;;;;;4.40;2.37;;;11.40;71.30;;;;;;4977557;28;20458;-81
2023/05/18 04:15:29;;;;;;;3.37;2.03;;;11.40;71.10;;;;;;4969612;28;20463;-80
2023/05/18 04:18:21;;;;;;;5.00;1.97;;;11.30;71.20;;;;;;4989908;28;20491;-81
2023/05/18 04:24:47;;;;;;;3.70;2.60;;;11.30;71.20;;;;;;4950603;28;21007;-84
2023/05/18 04:36:07;;;;;;;;;;;;;;;;;;;;;
2023/05/18 04:39:13;;;;;;;4.23;2.10;;;11.10;74.10;;;;;;4971969;28;20448;-84
2023/05/18 04:42:22;;;;;;;4.73;1.97;;;11.20;73.40;;;;;;4958238;28;20449;-83
2023/05/18 04:45:39;;;;;;;5.57;2.20;;;11.10;72.70;;;;;;4956779;28;20566;-83
2023/05/18 04:49:00;;;;;;;2.53;2.10;;;11.10;74.30;;;;;;4952074;28;20450;-83
2023/05/18 04:51:58;;;;;;;6.07;1.87;;;11.20;76.10;;;;;;4951545;28;20572;-84
2023/05/18 04:54:35;;;;;;;5.93;2.57;;;11.30;76.80;;;;;;4958445;28;20465;-84
2023/05/18 04:57:39;;;;;;;5.93;2.30;;;11.30;77.10;;;;;;4963812;28;20444;-83
2023/05/18 05:01:08;;;;;;;2.60;2.30;;;11.70;77.30;;;;;;4952423;29;20499;-83
2023/05/18 05:04:25;;;;;;;4.77;1.90;;;11.70;75.70;;;;;;4913828;28;21116;-84
2023/05/18 05:07:04;;;;;;;7.13;2.57;;;11.60;76.10;;;;;;4973920;28;20460;-83
2023/05/18 05:10:02;;;;;;;2.50;1.80;;;11.60;77.20;;;;;;4950295;28;20576;-82
2023/05/18 05:12:53;;;;;;;2.00;1.90;;;11.80;76.50;;;;;;4966509;28;20460;-80
2023/05/18 05:15:40;;;;;;;3.83;2.30;;;11.80;76.80;;;;;;4896782;29;21395;-82
2023/05/18 05:18:31;;;;;;;3.93;2.13;;;11.80;76.80;;;;;;4894332;28;20461;-81
2023/05/18 05:21:15;;;;;;;3.00;2.13;;;11.80;76.30;;;;;;4977158;28;20463;-82
2023/05/18 05:31:46;;;;;;;;;;;;;;;;;;;;;
2023/05/18 05:35:23;;;;;;;7.00;2.47;;;12.00;75.90;;;;;;4938203;29;20481;-84
2023/05/18 05:38:14;;;;;;;4.20;2.60;;;12.10;73.80;;;;;;4931012;29;20820;-83
2023/05/18 05:41:07;;;;;;;2.73;2.50;;;12.00;74.80;;;;;;4936364;29;21044;-83
2023/05/18 05:43:53;;;;;;;8.30;2.80;;;12.10;75.50;;;;;;4935646;29;20557;-83
2023/05/18 05:46:31;;;;;;;2.37;2.17;;;12.10;75.10;;;;;;4925986;29;20469;-83
2023/05/18 05:49:07;;;;;;;8.30;2.37;;;12.00;75.50;;;;;;4938967;29;20525;-81
2023/05/18 05:51:39;;;;;;;3.50;2.20;;;12.00;75.70;;;;;;4937550;29;20461;-84
2023/05/18 05:54:46;;;;;;;2.17;1.97;;;12.00;75.40;;;;;;4948033;28;20476;-84
2023/05/18 05:57:33;;;;;;;3.20;1.83;;;12.10;74.60;;;;;;4977196;28;20455;-83
2023/05/18 06:00:28;;;;;;;3.40;2.20;;;12.00;74.80;;;;;;4977758;28;20463;-82
2023/05/18 06:03:12;;;;;;;3.87;1.83;;;12.20;74.30;;;;;;4981845;28;20475;-81
2023/05/18 06:05:49;;;;;;;4.87;1.90;;;12.40;73.70;;;;;;4986594;28;20535;-82
2023/05/18 06:08:31;;;;;;;4.97;2.43;;;12.50;72.80;;;;;;4971791;28;20561;-81
2023/05/18 06:11:10;;;;;;;8.93;2.73;;;12.30;72.40;;;;;;4954440;28;20544;-81
2023/05/18 06:13:51;;;;;;;4.53;2.43;;;12.50;71.70;;;;;;4972851;28;20480;-81
2023/05/18 06:16:57;;;;;;;7.13;2.17;;;12.40;71.40;;;;;;4969411;28;21173;-82
2023/05/18 06:19:24;;;;;;;5.67;2.33;;;12.40;71.60;;;;;;4952901;28;20812;-80
2023/05/18 06:21:51;;;;;;;2.83;2.57;;;12.40;72.10;;;;;;4970227;28;20467;-81
2023/05/18 06:24:26;;;;;;;4.10;2.50;;;12.40;72.10;;;;;;4968788;28;20512;-83
2023/05/18 06:26:55;;;;;;;2.87;2.40;;;12.80;71.90;;;;;;4964410;28;20465;-83
2023/05/18 06:29:31;;;;;;;11.57;2.57;;;12.80;70.90;;;;;;4963352;28;20488;-85
2023/05/18 06:32:15;;;;;;;4.33;2.07;;;12.90;69.60;;;;;;4983766;28;20475;-82
2023/05/18 06:35:02;;;;;;;3.23;2.17;;;12.70;69.30;;;;;;4982390;28;20486;-82
2023/05/18 06:37:45;;;;;;;3.93;2.50;;;12.90;69.60;;;;;;4986037;28;20460;-81
2023/05/18 06:40:22;;;;;;;7.37;2.13;;;12.90;69.40;;;;;;4961604;28;20467;-83
2023/05/18 06:43:07;;;;;;;4.47;2.50;;;13.00;68.30;;;;;;4968947;28;20578;-83
2023/05/18 06:45:50;;;;;;;3.43;2.30;;;12.90;68.50;;;;;;4966562;28;20460;-81
2023/05/18 06:48:27;;;;;;;11.00;2.83;;;12.90;69.60;;;;;;4974530;28;20460;-83
2023/05/18 06:51:04;;;;;;;2.17;1.80;;;12.80;69.00;;;;;;4974166;28;20490;-83
2023/05/18 06:53:37;;;;;;;6.07;2.43;;;12.90;68.70;;;;;;4972319;28;20471;-82
2023/05/18 06:56:39;;;;;;;4.80;2.20;;;13.00;67.20;;;;;;4971988;28;20991;-82
2023/05/18 06:59:16;;;;;;;5.90;2.03;;;13.30;67.00;;;;;;4983435;28;20570;-82
2023/05/18 07:01:49;;;;;;;3.73;1.57;;;13.50;66.20;;;;;;4978938;28;20524;-82
2023/05/18 07:04:24;;;;;;;3.20;1.83;;;13.30;65.30;;;;;;4973873;28;20462;-82
2023/05/18 07:07:03;;;;;;;1.70;1.60;;;13.30;65.30;;;;;;4992755;28;20463;-80
2023/05/18 07:09:44;;;;;;;3.00;2.00;;;13.30;64.10;;;;;;4991074;28;20594;-79
2023/05/18 07:12:42;;;;;;;2.73;1.73;;;13.10;64.00;;;;;;4986072;28;20479;-80
2023/05/18 07:15:14;;;;;;;4.50;2.70;;;13.60;64.80;;;;;;4988066;28;20507;-83
2023/05/18 07:18:10;;;;;;;6.53;2.23;;;13.70;64.70;;;;;;4981038;28;20519;-79
2023/05/18 07:20:49;;;;;;;5.83;2.50;;;13.70;64.10;;;;;;4996035;28;20456;-82
2023/05/18 07:23:39;;;;;;;3.70;1.63;;;14.20;64.40;;;;;;4990674;28;20519;-80
2023/05/18 07:26:22;;;;;;;4.90;2.23;;;14.00;64.00;;;;;;4998676;28;20431;-81
2023/05/18 07:29:09;;;;;;;6.00;3.50;;;13.80;63.60;;;;;;4980312;28;20447;-80
2023/05/18 07:31:46;;;;;;;2.60;2.17;;;13.80;63.60;;;;;;4992676;28;20436;-82
2023/05/18 07:34:16;;;;;;;7.53;2.60;;;14.10;64.30;;;;;;4991800;28;20483;-82
2023/05/18 07:36:53;;;;;;;4.07;2.47;;;14.40;64.20;;;;;;5000359;28;20455;-80
2023/05/18 07:39:28;;;;;;;6.13;1.93;;;14.40;63.30;;;;;;5000252;28;20491;-82
2023/05/18 07:42:05;;;;;;;3.60;2.10;;;14.60;63.40;;;;;;4999365;28;20431;-81
2023/05/18 07:44:58;;;;;;;4.10;2.07;;;15.10;61.70;;;;;;4981590;28;20496;-82
2023/05/18 07:47:36;;;;;;;5.53;2.17;;;14.80;60.40;;;;;;4991417;28;20456;-82
2023/05/18 07:50:15;;;;;;;4.93;1.90;;;15.20;59.70;;;;;;5000077;28;20483;-81
2023/05/18 07:52:54;;;;;;;2.87;2.10;;;15.30;59.30;;;;;;5000839;28;20440;-83
2023/05/18 07:56:00;;;;;;;7.00;2.20;;;15.20;58.90;;;;;;4973593;28;20483;-82
2023/05/18 07:58:55;;;;;;;5.30;1.93;;;15.20;60.20;;;;;;4958540;28;20466;-81
2023/05/18 08:01:47;;;;;;;4.80;2.10;;;15.90;59.40;;;;;;4982798;28;20950;-83
2023/05/18 08:04:18;;;;;;;2.30;2.10;;;16.40;57.00;;;;;;4954890;28;20490;-83
2023/05/18 08:07:30;;;;;;;3.00;2.10;;;16.10;57.10;;;;;;4978371;28;20814;-83
2023/05/18 08:10:26;;;;;;;2.17;1.90;;;17.30;56.10;;;;;;4988160;28;21146;-82
2023/05/18 08:16:48;;;;;;;2.90;2.00;;;18.20;52.80;;;;;;4959501;28;20444;-83
2023/05/18 08:20:07;;;;;;;3.70;2.60;;;19.10;51.60;;;;;;4965182;28;20480;-82
2023/05/18 08:23:17;;;;;;;3.13;2.17;;;19.90;49.20;;;;;;4950996;29;20520;-82
2023/05/18 08:26:11;;;;;;;4.70;1.63;;;21.20;47.40;;;;;;4900589;29;20530;-83
2023/05/18 08:32:00;;;;;;;3.23;1.90;;;22.20;44.50;;;;;;4957309;28;20549;-82
2023/05/18 08:34:50;;;;;;;3.93;1.70;;;24.00;42.90;;;;;;4913353;29;20514;-83
2023/05/18 08:37:46;;;;;;;1.80;1.47;;;26.60;38.30;;;;;;4911049;29;20491;-84
2023/05/18 08:44:15;;;;;;;3.00;1.57;;;27.10;35.20;;;;;;4938681;29;20458;-82
2023/05/18 08:47:37;;;;;;;5.30;2.17;;;26.20;35.70;;;;;;4929569;29;20446;-82
2023/05/18 08:50:19;;;;;;;1.83;1.60;;;25.90;35.90;;;;;;4913366;29;20470;-82
2023/05/18 08:53:28;;;;;;;1.50;1.30;;;26.00;36.10;;;;;;4905746;29;20462;-82
2023/05/18 08:56:20;;;;;;;4.10;1.50;;;27.90;34.40;;;;;;4920425;29;20564;-82
2023/05/18 08:59:51;;;;;;;2.90;1.80;;;28.40;32.80;;;;;;4920371;29;20463;-82
2023/05/18 09:02:53;;;;;;;;;;;;;;;;;;;;;
2023/05/18 09:06:01;;;;;;;;;;;;;;;;;;;;;
2023/05/18 09:08:56;;;;;;;;;;;;;;;;;;;;;
2023/05/18 09:11:34;;;;;;;2.60;1.60;;;26.60;33.10;;;;;;4936828;28;20484;-82
2023/05/18 09:14:33;;;;;;;3.17;1.77;;;26.20;33.00;;;;;;4981851;28;20466;-81
2023/05/18 09:17:56;;;;;;;1.50;1.40;;;24.10;34.90;;;;;;4957694;28;20522;-82
2023/05/18 09:21:06;;;;;;;3.03;1.47;;;23.80;36.20;;;;;;4979094;28;20496;-84
2023/05/18 09:27:29;;;;;;;2.53;1.77;;;23.80;36.40;;;;;;4978278;28;20450;-83
2023/05/18 09:30:42;;;;;;;3.63;1.83;;;23.50;36.30;;;;;;4892839;29;21139;-82
2023/05/18 09:33:45;;;;;;;2.87;1.60;;;22.90;37.00;;;;;;4894084;29;20470;-84
2023/05/18 09:37:04;;;;;;;2.37;1.80;;;22.00;38.90;;;;;;4895834;29;20778;-82
2023/05/18 09:39:41;;;;;;;2.27;1.80;;;21.70;38.80;;;;;;4897805;29;20734;-83
2023/05/18 09:42:22;;;;;;;2.63;1.57;;;20.80;39.40;;;;;;4901574;29;20882;-83
2023/05/18 09:45:15;;;;;;;2.07;1.43;;;20.70;40.10;;;;;;4910793;29;20431;-83
2023/05/18 09:48:43;;;;;;;5.03;1.87;;;20.70;40.40;;;;;;4890968;29;20455;-83
2023/05/18 09:51:49;;;;;;;4.23;1.60;;;20.20;41.60;;;;;;4883992;29;20487;-83
2023/05/18 09:54:27;;;;;;;6.50;1.87;;;20.60;41.20;;;;;;4877996;29;21155;-83
2023/05/18 09:57:15;;;;;;;2.00;1.80;;;20.30;41.20;;;;;;4882679;29;20456;-84
2023/05/18 10:00:26;;;;;;;3.43;1.40;;;20.30;41.40;;;;;;4885645;29;20456;-83
2023/05/18 10:02:55;;;;;;;3.77;1.13;;;22.00;40.20;;;;;;4883726;29;20468;-82
2023/05/18 10:05:50;;;;;;;3.60;1.77;;;23.50;38.00;;;;;;4887698;29;20935;-83
2023/05/18 10:08:26;;;;;;;2.87;1.47;;;23.90;36.10;;;;;;4956087;28;20448;-84
2023/05/18 10:11:04;;;;;;;4.73;3.40;;;24.60;35.60;;;;;;4953019;28;20554;-83
2023/05/18 10:13:37;;;;;;;3.40;2.23;;;24.40;35.30;;;;;;4953626;28;20461;-82
2023/05/18 10:16:37;;;;;;;3.97;1.80;;;24.80;35.00;;;;;;4918927;29;20510;-82
2023/05/18 10:19:45;;;;;;;2.40;1.30;;;24.90;35.00;;;;;;4928023;29;20453;-82
2023/05/18 10:22:52;;;;;;;2.33;1.40;;;25.50;34.70;;;;;;4925794;29;20505;-83
2023/05/18 10:25:37;;;;;;;2.43;1.40;;;25.10;34.40;;;;;;4922265;29;20451;-84
2023/05/18 10:28:50;;;;;;;1.37;1.13;;;25.00;35.60;;;;;;4904996;29;20455;-84
2023/05/18 10:35:07;;;;;;;2.30;1.27;;;25.50;34.80;;;;;;4953241;28;20479;-82
2023/05/18 10:37:46;;;;;;;2.80;1.60;;;26.10;33.10;;;;;;4965357;28;20456;-83
2023/05/18 10:40:50;;;;;;;4.43;1.50;;;25.70;33.80;;;;;;4961779;28;20465;-82
2023/05/18 10:43:44;;;;;;;2.20;1.20;;;26.00;33.60;;;;;;4979761;28;20491;-82
2023/05/18 10:46:37;;;;;;;1.63;1.30;;;26.00;33.50;;;;;;4979939;28;20492;-84
2023/05/18 10:49:27;;;;;;;3.23;1.57;;;25.40;33.60;;;;;;4968781;28;20441;-84
2023/05/18 10:52:03;;;;;;;3.43;1.50;;;26.20;33.70;;;;;;4982471;28;20551;-84
2023/05/18 10:54:37;;;;;;;2.30;1.50;;;27.10;32.40;;;;;;4973028;28;20484;-84
2023/05/18 10:57:24;;;;;;;2.53;1.70;;;26.10;32.50;;;;;;4983742;28;20459;-84
2023/05/18 11:00:21;;;;;;;1.73;1.40;;;25.10;33.90;;;;;;4981834;28;20502;-83
2023/05/18 11:03:34;;;;;;;;;;;;;;;;;;;;;
2023/05/18 11:06:22;;;;;;;4.60;2.47;;;24.10;35.60;;;;;;4989333;28;20444;-84
2023/05/18 11:09:24;;;;;;;2.80;1.40;;;24.70;35.10;;;;;;4974674;28;20440;-82
2023/05/18 11:15:10;;;;;;;1.50;1.40;;;25.20;35.00;;;;;;4979051;28;21023;-84
2023/05/18 11:18:18;;;;;;;1.57;1.40;;;25.00;34.20;;;;;;4961989;28;20452;-83
2023/05/18 11:21:46;;;;;;;1.97;1.50;;;24.80;34.40;;;;;;4971697;28;20466;-83
2023/05/18 11:24:54;;;;;;;2.57;1.40;;;25.90;33.60;;;;;;4976697;28;20893;-82
2023/05/18 11:36:26;;;;;;;2.20;1.83;;;27.40;31.90;;;;;;4926349;28;20465;-83
2023/05/18 11:39:37;;;;;;;3.13;1.93;;;26.90;31.80;;;;;;4978037;28;20448;-83
2023/05/18 11:43:02;;;;;;;2.60;1.47;;;26.00;32.60;;;;;;4961707;28;20458;-83
2023/05/18 11:46:43;;;;;;;1.90;1.70;;;24.80;33.50;;;;;;4986306;28;20452;-83
2023/05/18 11:49:59;;;;;;;2.30;1.47;;;24.30;34.20;;;;;;4963185;28;20440;-82
2023/05/18 11:53:21;;;;;;;1.70;1.20;;;24.90;35.00;;;;;;4976585;28;20441;-83
2023/05/18 12:00:06;;;;;;;1.40;1.30;;;25.10;34.20;;;;;;4973142;28;20419;-82
2023/05/18 12:07:27;;;;;;;3.20;1.50;;;25.10;33.50;;;;;;4938803;29;20456;-83
2023/05/18 12:13:55;;;;;;;2.90;1.50;;;25.30;33.70;;;;;;4944706;29;20466;-83
2023/05/18 12:17:16;;;;;;;;;;;;;;;;;;;;;
2023/05/18 12:20:29;;;;;;;4.20;1.50;;;25.20;34.50;;;;;;4955809;28;20457;-82
2023/05/18 12:27:13;;;;;;;2.30;1.50;;;25.60;32.80;;;;;;4972695;28;20876;-83
2023/05/18 12:30:34;;;;;;;;;;;;;;;;;;;;;
2023/05/18 12:34:19;;;;;;;3.00;1.83;;;25.10;33.10;;;;;;4909534;29;20474;-82
2023/05/18 12:38:17;;;;;;;3.53;1.70;;;24.80;33.20;;;;;;4897180;29;20542;-83
2023/05/18 12:42:00;;;;;;;;;;;;;;;;;;;;;
2023/05/18 12:48:18;;;;;;;2.43;1.70;;;24.80;34.00;;;;;;4852217;29;20457;-83
2023/05/18 12:50:54;;;;;;;2.00;1.43;;;24.90;34.20;;;;;;4847913;29;20481;-83
2023/05/18 12:53:50;;;;;;;3.00;1.60;;;25.30;33.40;;;;;;4847652;29;20497;-82
2023/05/18 12:57:11;;;;;;;2.70;1.50;;;25.30;33.10;;;;;;4841792;29;20647;-83
2023/05/18 13:00:19;;;;;;;2.17;1.40;;;25.20;33.30;;;;;;4853474;29;20502;-83
2023/05/18 13:03:20;;;;;;;3.30;1.30;;;24.60;34.30;;;;;;4847475;29;20482;-82
2023/05/18 13:10:03;;;;;;;4.57;1.50;;;25.30;34.20;;;;;;4860517;29;20524;-83
2023/05/18 13:13:09;;;;;;;2.87;1.63;;;25.20;34.10;;;;;;4871824;29;20475;-83
2023/05/18 13:19:36;;;;;;;1.60;1.47;;;25.10;34.00;;;;;;4877615;29;20512;-83
2023/05/18 13:28:23;;;;;;;1.60;1.40;;;24.40;34.30;;;;;;4981054;28;20511;-82
2023/05/18 13:31:38;;;;;;;2.50;1.33;;;24.20;34.60;;;;;;4996681;28;20484;-83
2023/05/18 13:34:24;;;;;;;3.23;1.70;;;24.10;34.50;;;;;;5011527;28;20581;-84
2023/05/18 13:37:31;;;;;;;2.60;1.77;;;24.10;34.40;;;;;;4989795;28;20458;-83
2023/05/18 13:40:17;;;;;;;;;;;;;;;;;;;;;
2023/05/18 13:43:45;;;;;;;;;;;;;;;;;;;;;
2023/05/18 13:46:31;;;;;;;5.47;1.80;;;24.60;34.90;;;;;;4997973;28;20460;-82
2023/05/18 13:52:14;;;;;;;2.13;1.50;;;24.80;35.00;;;;;;4991465;28;20506;-82
2023/05/18 13:55:35;;;;;;;;;;;;;;;;;;;;;
2023/05/18 13:59:18;;;;;;;2.87;1.50;;;24.20;35.10;;;;;;4932091;29;20445;-83
2023/05/18 14:02:28;;;;;;;2.10;1.83;;;23.70;36.10;;;;;;4914134;29;20528;-82
2023/05/18 14:05:30;;;;;;;3.10;1.53;;;23.60;36.90;;;;;;4925646;29;20488;-82
2023/05/18 14:08:05;;;;;;;4.43;1.90;;;23.90;37.90;;;;;;4923645;29;20735;-81
2023/05/18 14:13:53;;;;;;;4.37;1.67;;;24.70;37.30;;;;;;4928761;29;20572;-82
2023/05/18 14:20:02;;;;;;;3.10;1.60;;;24.30;37.70;;;;;;4934326;29;20441;-84
2023/05/18 14:23:12;;;;;;;4.73;1.87;;;24.50;37.40;;;;;;4934388;29;20468;-83
2023/05/18 14:25:59;;;;;;;5.63;1.83;;;24.40;36.80;;;;;;4939265;29;20556;-82
2023/05/18 14:28:37;;;;;;;3.10;1.70;;;24.30;37.60;;;;;;4943842;29;21079;-82
2023/05/18 14:32:29;;;;;;;4.97;1.83;;;24.50;38.10;;;;;;4885916;29;20507;-82
2023/05/18 14:38:51;;;;;;;4.80;2.57;;;23.60;38.90;;;;;;4886393;29;21081;-82
2023/05/18 14:42:10;;;;;;;4.53;1.70;;;23.50;40.00;;;;;;4807005;29;20548;-83
2023/05/18 14:49:23;;;;;;;4.23;2.10;;;23.80;39.10;;;;;;4806884;29;21050;-81
2023/05/18 14:52:46;;;;;;;2.50;2.00;;;23.50;39.90;;;;;;4857371;29;20502;-83
2023/05/18 14:56:07;;;;;;;2.53;1.90;;;23.50;39.20;;;;;;4886026;29;20942;-82
2023/05/18 14:59:17;;;;;;;3.80;1.57;;;23.60;39.70;;;;;;4868109;29;20507;-82
2023/05/18 15:05:42;;;;;;;1.90;1.70;;;23.40;39.90;;;;;;4908138;29;20629;-81
2023/05/18 15:09:05;;;;;;;2.10;1.77;;;23.20;40.30;;;;;;4930898;29;20961;-82
2023/05/18 15:15:37;;;;;;;3.80;2.07;;;23.20;40.10;;;;;;4937209;29;20437;-83
2023/05/18 15:18:31;;;;;;;3.60;1.97;;;23.40;41.30;;;;;;4949825;28;20461;-82
2023/05/18 15:22:06;;;;;;;4.87;1.90;;;23.40;41.40;;;;;;5009101;28;20435;-83
2023/05/18 15:30:31;;;;;;;3.80;2.60;;;23.10;42.00;;;;;;4836219;29;20452;-83
2023/05/18 15:33:42;;;;;;;;;;;;;;;;;;;;;
2023/05/18 15:36:40;;;;;;;7.50;2.27;;;23.10;41.80;;;;;;4875335;29;20458;-82
2023/05/18 15:39:32;;;;;;;3.37;2.30;;;23.10;41.60;;;;;;4875729;29;20528;-82
2023/05/18 15:42:42;;;;;;;1.93;1.70;;;23.30;41.90;;;;;;4842457;29;20452;-82
2023/05/18 15:45:18;;;;;;;5.73;2.43;;;23.10;42.90;;;;;;4910004;29;20548;-81
2023/05/18 15:48:36;;;;;;;1.97;1.80;;;23.10;42.60;;;;;;4932739;29;20550;-82
2023/05/18 15:51:23;;;;;;;4.37;2.07;;;22.90;42.90;;;;;;4928570;29;21002;-82
2023/05/18 15:54:50;;;;;;;3.07;2.53;;;22.80;43.50;;;;;;4993409;23;20597;-82
2023/05/18 15:57:45;;;;;;;2.40;1.90;;;22.90;43.20;;;;;;5011029;28;20483;-83
2023/05/18 16:00:59;;;;;;;;;;;;;;;;;;;;;
2023/05/18 16:04:24;;;;;;;3.50;2.17;;;22.90;43.50;;;;;;4961252;28;20566;-83
2023/05/18 16:07:42;;;;;;;3.00;2.20;;;22.70;43.80;;;;;;4941113;28;20456;-83
2023/05/18 16:11:36;;;;;;;;;;;;;;;;;;;;;
2023/05/18 16:18:26;;;;;;;3.60;2.07;;;22.80;44.00;;;;;;4950025;29;20455;-83
2023/05/18 16:21:42;;;;;;;;;;;;;;;;;;;;;
2023/05/18 16:24:43;;;;;;;2.10;1.50;;;22.50;44.10;;;;;;4881339;29;20519;-81
2023/05/18 16:32:43;;;;;;;4.83;2.67;;;22.30;43.90;;;;;;4736825;30;20499;-81
2023/05/18 16:36:03;;;;;;;;;;;;;;;;;;;;;
2023/05/18 16:39:02;;;;;;;6.40;2.20;;;21.80;45.60;;;;;;4772859;29;20460;-82
2023/05/18 16:45:54;;;;;;;4.10;2.30;;;21.90;45.20;;;;;;4852649;29;20480;-82
2023/05/18 16:48:57;;;;;;;6.73;2.33;;;21.90;45.10;;;;;;4911447;29;20638;-83
2023/05/18 16:52:28;;;;;;;1.80;1.70;;;21.90;45.20;;;;;;4905072;29;20513;-82
2023/05/18 16:56:03;;;;;;;3.40;2.43;;;21.70;45.00;;;;;;4937093;28;20439;-83
2023/05/18 16:58:55;;;;;;;5.63;2.60;;;21.70;45.00;;;;;;4969177;28;20450;-83
2023/05/18 17:09:06;;;;;;;4.70;1.93;;;21.50;46.10;;;;;;4922158;28;20501;-83
2023/05/18 17:18:53;;;;;;;6.57;2.07;;;21.20;46.00;;;;;;4988896;28;20451;-81
2023/05/18 17:22:09;;;;;;;;;;;;;;;;;;;;;
2023/05/18 17:28:22;;;;;;;;;;;;;;;;;;;;;
2023/05/18 17:31:21;;;;;;;4.37;1.80;;;21.00;46.50;;;;;;5021134;28;20526;-83
2023/05/18 17:34:54;;;;;;;5.30;2.07;;;20.90;47.10;;;;;;4935022;28;21001;-83
2023/05/18 17:37:49;;;;;;;1.87;1.47;;;20.80;46.70;;;;;;4952028;28;20452;-83
2023/05/18 17:40:36;;;;;;;3.93;1.90;;;20.80;47.10;;;;;;4900532;29;20483;-81
2023/05/18 17:50:28;;;;;;;2.17;1.53;;;20.70;47.00;;;;;;4896417;29;20796;-82
2023/05/18 17:53:31;;;;;;;4.07;1.67;;;20.70;47.50;;;;;;4876897;29;20492;-81
2023/05/18 17:56:35;;;;;;;3.57;1.80;;;20.60;47.20;;;;;;4889826;29;20516;-82
2023/05/18 17:59:54;;;;;;;5.47;2.03;;;20.60;47.10;;;;;;4946776;29;20475;-82
2023/05/18 18:06:45;;;;;;;9.63;5.13;;;20.40;47.40;;;;;;4931424;29;20463;-84
2023/05/18 18:10:04;;;;;;;1.87;1.67;;;20.30;48.10;;;;;;4904125;29;20446;-83
2023/05/18 18:13:36;;;;;;;;;;;;;;;;;;;;;
2023/05/18 18:17:06;;;;;;;2.37;1.93;;;20.30;47.90;;;;;;4937939;29;20477;-83
2023/05/18 18:20:04;;;;;;;3.43;1.80;;;20.00;48.20;;;;;;4994649;28;20467;-80
2023/05/18 18:24:02;;;;;;;2.00;1.80;;;19.90;48.60;;;;;;4992882;28;20450;-82
2023/05/18 18:27:22;;;;;;;;;;;;;;;;;;;;;
2023/05/18 18:35:21;;;;;;;1.73;1.37;;;19.70;48.60;;;;;;4918725;29;20550;-83
2023/05/18 18:38:39;;;;;;;;;;;;;;;;;;;;;
2023/05/18 18:41:35;;;;;;;2.00;1.73;;;19.60;49.20;;;;;;4968908;28;20526;-83
2023/05/18 18:44:19;;;;;;;3.27;1.70;;;19.60;48.70;;;;;;4967904;28;20476;-82
2023/05/18 18:50:36;;;;;;;4.53;1.70;;;19.30;48.90;;;;;;4974559;28;20478;-81
2023/05/18 18:53:55;;;;;;;3.20;2.77;;;19.30;49.00;;;;;;4974936;28;20496;-83
2023/05/18 18:56:42;;;;;;;3.30;2.10;;;19.30;49.60;;;;;;4975060;28;20934;-83
2023/05/18 18:59:57;;;;;;;2.43;1.70;;;19.30;49.50;;;;;;4972274;28;20475;-82
2023/05/18 19:02:48;;;;;;;2.40;1.77;;;19.20;49.50;;;;;;4964679;28;20441;-82
2023/05/18 19:05:29;;;;;;;4.37;1.90;;;19.10;50.10;;;;;;4957622;28;21030;-82
2023/05/18 19:14:48;;;;;;;3.37;1.90;;;19.00;50.60;;;;;;4971128;28;20491;-83
2023/05/18 19:21:24;;;;;;;2.23;1.80;;;18.70;50.80;;;;;;4955596;28;20533;-83
2023/05/18 19:24:24;;;;;;;2.70;1.87;;;18.80;50.50;;;;;;4981026;28;20467;-81